Time;durP1;ratioP1;P1;durP2;ratioP2;P2;SDS_P1;SDS_P2;PMS_P1;PMS_P2;Temp;Humidity;BMP_temperature;BMP_pressure;BME280_temperature;BME280_humidity;BME280_pressure;Samples;Min_cycle;Max_cycle;Signal;HPM_P1;HPM_P2
2023/08/30 00:00:45;;;;;;;10.13;8.60;;;14.10;99.90;;;;;;5075431;28;20029;-55
2023/08/30 00:03:12;;;;;;;11.40;10.00;;;14.00;99.90;;;;;;5077169;28;20440;-56
2023/08/30 00:05:41;;;;;;;11.98;8.88;;;14.00;99.90;;;;;;5076537;28;20418;-54
2023/08/30 00:08:07;;;;;;;12.63;10.02;;;14.00;99.90;;;;;;5075443;28;20134;-58
2023/08/30 00:10:33;;;;;;;11.35;10.10;;;13.90;99.90;;;;;;5074230;28;20041;-57
2023/08/30 00:12:58;;;;;;;10.90;9.63;;;13.90;99.90;;;;;;5072549;28;20082;-55
2023/08/30 00:15:24;;;;;;;11.98;10.63;;;14.00;99.90;;;;;;5071688;28;20048;-55
2023/08/30 00:17:51;;;;;;;10.55;9.20;;;13.90;99.90;;;;;;5073267;28;20079;-59
2023/08/30 00:20:18;;;;;;;11.45;6.22;;;13.80;99.90;;;;;;5073511;28;20055;-52
2023/08/30 00:22:44;;;;;;;11.43;9.73;;;13.80;99.90;;;;;;5073249;28;20068;-57
2023/08/30 00:25:09;;;;;;;11.43;10.00;;;13.80;99.90;;;;;;5073548;28;20082;-55
2023/08/30 00:27:35;;;;;;;11.95;9.40;;;13.80;99.90;;;;;;5073426;28;20128;-56
2023/08/30 00:30:01;;;;;;;11.75;9.20;;;13.70;99.90;;;;;;5073427;28;20036;-56
2023/08/30 00:32:26;;;;;;;10.45;9.32;;;13.70;99.90;;;;;;5073489;28;20119;-57
2023/08/30 00:34:52;;;;;;;11.90;9.50;;;13.70;99.90;;;;;;5073178;28;20044;-57
2023/08/30 00:37:18;;;;;;;12.57;9.95;;;13.70;99.90;;;;;;5071751;28;20391;-54
2023/08/30 00:39:44;;;;;;;11.23;9.80;;;13.70;99.90;;;;;;5073311;28;20068;-57
2023/08/30 00:42:09;;;;;;;10.98;9.18;;;13.60;99.90;;;;;;5072710;28;20392;-57
2023/08/30 00:44:35;;;;;;;12.00;9.70;;;13.60;99.90;;;;;;5073000;28;20044;-53
2023/08/30 00:47:02;;;;;;;11.93;9.68;;;13.60;99.90;;;;;;5073051;28;20033;-58
2023/08/30 00:49:30;;;;;;;10.23;9.13;;;13.50;99.90;;;;;;5072844;28;20043;-56
2023/08/30 00:52:03;;;;;;;12.05;9.85;;;13.60;99.90;;;;;;5072451;28;20040;-56
2023/08/30 00:54:29;;;;;;;11.80;10.02;;;13.50;99.90;;;;;;5072910;28;20127;-57
2023/08/30 00:56:55;;;;;;;11.70;10.15;;;13.50;99.90;;;;;;5072820;28;20539;-53
2023/08/30 00:59:22;;;;;;;10.48;9.10;;;13.50;99.90;;;;;;5054477;28;20434;-57
2023/08/30 01:01:48;;;;;;;10.93;9.82;;;13.50;99.90;;;;;;5072962;28;20047;-59
2023/08/30 01:04:14;;;;;;;10.65;9.27;;;13.50;99.90;;;;;;5072473;28;20044;-56
2023/08/30 01:06:41;;;;;;;11.35;9.85;;;13.50;99.90;;;;;;5072340;28;20036;-54
2023/08/30 01:09:07;;;;;;;11.10;10.00;;;13.60;99.90;;;;;;5070834;28;20036;-58
2023/08/30 01:11:54;;;;;;;12.63;9.98;;;13.60;99.90;;;;;;5071977;28;20040;-54
2023/08/30 01:14:50;;;;;;;11.77;9.57;;;13.60;99.90;;;;;;5071932;28;20045;-57
2023/08/30 01:17:18;;;;;;;15.02;10.05;;;13.70;99.90;;;;;;5067158;28;20070;-54
2023/08/30 01:19:50;;;;;;;11.95;9.57;;;13.70;99.90;;;;;;5070757;28;20131;-56
2023/08/30 01:22:39;;;;;;;11.98;10.43;;;13.70;99.90;;;;;;5071172;28;20032;-55
2023/08/30 01:25:14;;;;;;;14.15;10.80;;;13.80;99.90;;;;;;5072518;28;20124;-56
2023/08/30 01:27:42;;;;;;;11.48;9.57;;;13.80;99.90;;;;;;5072093;28;20174;-59
2023/08/30 01:30:10;;;;;;;12.13;6.57;;;13.80;99.90;;;;;;5072097;28;20491;-57
2023/08/30 01:32:37;;;;;;;11.35;9.90;;;13.80;99.90;;;;;;5072155;28;20525;-56
2023/08/30 01:35:05;;;;;;;11.07;9.95;;;13.80;99.90;;;;;;5071929;28;20041;-54
2023/08/30 01:37:32;;;;;;;12.30;10.32;;;13.90;99.90;;;;;;5071596;28;20085;-56
2023/08/30 01:39:58;;;;;;;13.52;10.23;;;13.90;99.90;;;;;;5072197;28;20450;-54
2023/08/30 01:42:26;;;;;;;11.10;9.90;;;13.90;99.90;;;;;;5071525;28;20040;-56
2023/08/30 01:44:57;;;;;;;10.88;9.75;;;14.00;99.90;;;;;;5068501;28;20029;-55
2023/08/30 01:47:25;;;;;;;10.52;9.43;;;13.90;99.90;;;;;;5070920;28;20463;-56
2023/08/30 01:49:53;;;;;;;12.80;9.73;;;14.00;99.90;;;;;;5070816;28;20063;-57
2023/08/30 01:52:20;;;;;;;11.40;10.20;;;13.90;99.90;;;;;;5070862;28;20084;-57
2023/08/30 01:54:47;;;;;;;11.63;9.77;;;13.90;99.90;;;;;;5071583;28;20044;-57
2023/08/30 01:57:13;;;;;;;11.98;10.02;;;13.90;99.90;;;;;;5070092;28;20045;-56
2023/08/30 01:59:39;;;;;;;12.95;10.48;;;13.90;99.90;;;;;;5071690;28;20036;-55
2023/08/30 02:02:04;;;;;;;12.50;7.18;;;13.80;99.90;;;;;;5071368;28;20037;-57
2023/08/30 02:04:33;;;;;;;12.50;10.30;;;13.90;99.90;;;;;;5071707;28;20040;-56
2023/08/30 02:07:14;;;;;;;11.68;10.23;;;13.80;99.90;;;;;;5071586;28;20040;-57
2023/08/30 02:09:49;;;;;;;12.10;10.15;;;13.80;99.90;;;;;;5071419;28;20106;-56
2023/08/30 02:12:17;;;;;;;11.57;10.38;;;13.80;99.90;;;;;;5071314;28;20037;-60
2023/08/30 02:14:47;;;;;;;12.27;10.75;;;13.70;99.90;;;;;;5071172;28;20115;-59
2023/08/30 02:17:15;;;;;;;11.93;10.60;;;13.60;99.90;;;;;;5070925;28;20061;-57
2023/08/30 02:19:43;;;;;;;12.20;7.40;;;13.60;99.90;;;;;;5071097;28;20127;-56
2023/08/30 02:22:08;;;;;;;14.43;11.43;;;13.50;99.90;;;;;;5070933;28;20107;-57
2023/08/30 02:24:34;;;;;;;12.77;11.15;;;13.40;99.90;;;;;;5069678;28;20067;-56
2023/08/30 02:27:00;;;;;;;13.35;11.85;;;13.40;99.90;;;;;;5071272;28;20123;-57
2023/08/30 02:29:25;;;;;;;15.07;11.90;;;13.40;99.90;;;;;;5069717;28;20037;-58
2023/08/30 02:31:51;;;;;;;14.02;12.13;;;13.40;99.90;;;;;;5070039;28;20540;-55
2023/08/30 02:34:17;;;;;;;12.88;11.52;;;13.30;99.90;;;;;;5070705;28;20040;-54
2023/08/30 02:36:42;;;;;;;14.02;11.88;;;13.30;99.90;;;;;;5070967;28;20047;-57
2023/08/30 02:39:08;;;;;;;12.40;7.88;;;13.30;99.90;;;;;;5071068;28;20033;-55
2023/08/30 02:41:34;;;;;;;14.20;11.40;;;13.30;99.90;;;;;;5070963;28;20032;-58
2023/08/30 02:44:00;;;;;;;13.15;8.27;;;13.30;99.90;;;;;;5071097;28;20036;-57
2023/08/30 02:46:26;;;;;;;14.05;12.10;;;13.30;99.90;;;;;;5069706;28;20036;-55
2023/08/30 02:48:51;;;;;;;12.80;11.27;;;13.30;99.90;;;;;;5070732;28;20485;-55
2023/08/30 02:51:17;;;;;;;12.68;11.32;;;13.30;99.90;;;;;;5070579;28;20495;-56
2023/08/30 02:53:43;;;;;;;14.75;12.10;;;13.30;99.90;;;;;;5070919;28;20029;-57
2023/08/30 02:56:08;;;;;;;12.50;7.97;;;13.40;99.90;;;;;;5070558;28;20040;-58
2023/08/30 02:58:34;;;;;;;13.68;11.65;;;13.40;99.90;;;;;;5071062;28;20043;-58
2023/08/30 03:01:02;;;;;;;13.43;12.10;;;13.30;99.90;;;;;;5070695;28;20032;-56
2023/08/30 03:03:28;;;;;;;15.77;8.80;;;13.40;99.90;;;;;;5070799;28;20044;-58
2023/08/30 03:05:54;;;;;;;14.60;13.07;;;13.40;99.90;;;;;;5070865;28;20567;-58
2023/08/30 03:08:19;;;;;;;13.10;11.43;;;13.30;99.90;;;;;;5070612;28;20514;-56
2023/08/30 03:10:45;;;;;;;14.52;12.13;;;13.40;99.90;;;;;;5070763;28;20086;-54
2023/08/30 03:13:11;;;;;;;13.18;11.38;;;13.50;99.90;;;;;;5070524;28;20072;-60
2023/08/30 03:15:37;;;;;;;12.35;10.98;;;13.50;99.90;;;;;;5070025;28;20037;-58
2023/08/30 03:18:02;;;;;;;12.60;11.38;;;13.50;99.90;;;;;;5070251;28;20507;-55
2023/08/30 03:20:28;;;;;;;13.30;11.75;;;13.50;99.90;;;;;;5070682;28;20523;-57
2023/08/30 03:22:57;;;;;;;14.27;8.38;;;13.50;99.90;;;;;;5070148;28;20032;-58
2023/08/30 03:25:23;;;;;;;17.05;12.30;;;13.50;99.90;;;;;;5070304;28;20046;-59
2023/08/30 03:27:49;;;;;;;14.63;12.35;;;13.50;99.90;;;;;;5070621;28;20044;-57
2023/08/30 03:30:15;;;;;;;14.88;11.85;;;13.50;99.90;;;;;;5070495;28;20102;-58
2023/08/30 03:32:40;;;;;;;12.82;11.43;;;13.50;99.90;;;;;;5070379;28;20044;-57
2023/08/30 03:35:06;;;;;;;12.77;11.48;;;13.50;99.90;;;;;;5070453;28;20131;-55
2023/08/30 03:37:32;;;;;;;14.18;11.82;;;13.60;99.90;;;;;;5070822;28;20043;-58
2023/08/30 03:39:58;;;;;;;13.30;11.60;;;13.50;99.90;;;;;;5070031;28;20040;-58
2023/08/30 03:42:23;;;;;;;12.88;11.48;;;13.50;99.90;;;;;;5070544;28;20171;-54
2023/08/30 03:44:49;;;;;;;12.88;11.48;;;13.60;99.90;;;;;;5068605;28;20040;-57
2023/08/30 03:47:15;;;;;;;13.55;11.57;;;13.60;99.90;;;;;;5073148;28;20033;-58
2023/08/30 03:49:41;;;;;;;12.88;11.57;;;13.60;99.90;;;;;;5073491;28;20476;-56
2023/08/30 03:52:07;;;;;;;13.52;12.10;;;13.60;99.90;;;;;;5073593;28;20397;-56
2023/08/30 03:54:33;;;;;;;15.32;8.25;;;13.60;99.90;;;;;;5055712;28;20051;-59
2023/08/30 03:56:59;;;;;;;12.77;11.45;;;13.60;99.90;;;;;;5073943;28;20040;-57
2023/08/30 03:59:27;;;;;;;14.00;8.63;;;13.60;99.90;;;;;;5073698;28;20141;-57
2023/08/30 04:01:53;;;;;;;13.60;9.27;;;13.60;99.90;;;;;;5072662;28;20464;-57
2023/08/30 04:04:18;;;;;;;12.43;8.57;;;13.60;99.90;;;;;;5072645;28;20459;-54
2023/08/30 04:06:44;;;;;;;12.43;10.95;;;13.60;99.90;;;;;;5073626;28;20043;-58
2023/08/30 04:09:10;;;;;;;14.70;12.07;;;13.60;99.90;;;;;;5073597;28;20095;-56
2023/08/30 04:11:36;;;;;;;13.70;11.23;;;13.60;99.90;;;;;;5072948;28;20037;-57
2023/08/30 04:14:02;;;;;;;12.95;10.98;;;13.70;99.90;;;;;;5073084;28;20086;-56
2023/08/30 04:16:28;;;;;;;13.15;11.75;;;13.70;99.90;;;;;;5072957;28;20068;-55
2023/08/30 04:18:54;;;;;;;14.60;11.15;;;13.60;99.90;;;;;;5073127;28;20095;-57
2023/08/30 04:21:20;;;;;;;12.63;11.32;;;13.60;99.90;;;;;;5073504;28;20041;-57
2023/08/30 04:23:45;;;;;;;12.27;10.98;;;13.60;99.90;;;;;;5072844;28;20038;-57
2023/08/30 04:26:11;;;;;;;14.10;11.93;;;13.70;99.90;;;;;;5073400;28;20123;-52
2023/08/30 04:28:37;;;;;;;13.15;11.25;;;13.70;99.90;;;;;;5073528;28;20095;-56
2023/08/30 04:31:02;;;;;;;14.00;11.63;;;13.60;99.90;;;;;;5071983;28;20059;-57
2023/08/30 04:33:28;;;;;;;13.35;11.95;;;13.70;99.90;;;;;;5073567;28;20076;-60
2023/08/30 04:35:54;;;;;;;15.02;12.25;;;13.70;99.90;;;;;;5071670;28;20037;-57
2023/08/30 04:38:21;;;;;;;16.08;12.50;;;13.70;99.90;;;;;;5073087;28;20032;-55
2023/08/30 04:40:48;;;;;;;16.38;12.18;;;13.70;99.90;;;;;;5073297;28;20476;-57
2023/08/30 04:43:14;;;;;;;16.95;9.00;;;13.60;99.90;;;;;;5073136;28;20116;-58
2023/08/30 04:45:40;;;;;;;16.25;12.60;;;13.60;99.90;;;;;;5072983;28;20048;-57
2023/08/30 04:48:06;;;;;;;15.07;12.98;;;13.60;99.90;;;;;;5073471;28;20109;-57
2023/08/30 04:50:31;;;;;;;16.70;13.20;;;13.60;99.90;;;;;;5072664;28;20463;-57
2023/08/30 04:52:57;;;;;;;15.55;13.32;;;13.60;99.90;;;;;;5072600;28;20036;-57
2023/08/30 04:55:29;;;;;;;15.63;12.70;;;13.60;99.90;;;;;;5072807;28;20036;-56
2023/08/30 04:57:54;;;;;;;18.08;9.40;;;13.60;99.90;;;;;;5072074;28;20040;-54
2023/08/30 05:00:20;;;;;;;15.40;13.48;;;13.60;99.90;;;;;;5072414;28;20046;-57
2023/08/30 05:02:46;;;;;;;14.70;12.18;;;13.60;99.90;;;;;;5071983;28;20176;-57
2023/08/30 05:05:12;;;;;;;15.48;13.00;;;13.60;99.90;;;;;;5072519;28;20052;-54
2023/08/30 05:07:38;;;;;;;14.85;12.93;;;13.60;99.90;;;;;;5072578;28;20036;-57
2023/08/30 05:10:06;;;;;;;16.67;13.13;;;13.60;99.90;;;;;;5072761;28;20444;-58
2023/08/30 05:12:33;;;;;;;18.55;13.05;;;13.60;99.90;;;;;;5072616;28;20047;-58
2023/08/30 05:14:59;;;;;;;14.88;13.27;;;13.70;99.90;;;;;;5071559;28;20064;-56
2023/08/30 05:17:28;;;;;;;15.52;13.52;;;13.70;99.90;;;;;;5072514;28;20532;-56
2023/08/30 05:19:54;;;;;;;14.55;13.02;;;13.60;99.90;;;;;;5070772;28;20057;-55
2023/08/30 05:22:19;;;;;;;15.35;13.38;;;13.70;99.90;;;;;;5071712;28;20078;-57
2023/08/30 05:24:45;;;;;;;16.95;13.27;;;13.70;99.90;;;;;;5072415;28;20075;-56
2023/08/30 05:27:12;;;;;;;17.67;8.90;;;13.70;99.90;;;;;;5072379;28;20452;-55
2023/08/30 05:29:38;;;;;;;16.17;12.90;;;13.70;99.90;;;;;;5072291;28;20040;-57
2023/08/30 05:32:04;;;;;;;16.00;13.65;;;13.70;99.90;;;;;;5072319;28;20218;-55
2023/08/30 05:34:31;;;;;;;15.52;13.48;;;13.70;99.90;;;;;;5072019;28;20531;-59
2023/08/30 05:36:56;;;;;;;14.88;13.15;;;13.80;99.90;;;;;;5072039;28;20040;-57
2023/08/30 05:39:22;;;;;;;16.67;14.18;;;13.80;99.90;;;;;;5072072;28;20059;-53
2023/08/30 05:41:48;;;;;;;15.88;13.52;;;13.80;99.90;;;;;;5071670;28;20120;-55
2023/08/30 05:44:13;;;;;;;18.38;14.27;;;13.80;99.90;;;;;;5070284;28;20047;-54
2023/08/30 05:46:39;;;;;;;16.30;13.15;;;13.80;99.90;;;;;;5072006;28;20045;-57
2023/08/30 05:49:05;;;;;;;17.15;13.40;;;13.90;99.90;;;;;;5071882;28;20044;-55
2023/08/30 05:51:31;;;;;;;16.05;13.77;;;13.90;99.90;;;;;;5071743;28;20044;-57
2023/08/30 05:53:56;;;;;;;16.50;14.07;;;14.00;99.90;;;;;;5070190;28;20519;-54
2023/08/30 05:56:22;;;;;;;16.25;13.18;;;14.00;99.90;;;;;;5071437;28;20035;-57
2023/08/30 05:58:48;;;;;;;17.60;9.25;;;14.10;99.90;;;;;;5071490;28;20083;-56
2023/08/30 06:01:14;;;;;;;15.38;12.60;;;14.00;99.90;;;;;;5071951;28;20036;-57
2023/08/30 06:03:40;;;;;;;16.40;12.95;;;14.10;99.90;;;;;;5071749;28;20379;-56
2023/08/30 06:06:06;;;;;;;15.95;13.00;;;14.10;99.90;;;;;;5069841;28;20044;-58
2023/08/30 06:08:32;;;;;;;15.75;13.77;;;14.10;99.90;;;;;;5068956;28;20040;-56
2023/08/30 06:10:57;;;;;;;15.38;8.45;;;14.20;99.90;;;;;;5070029;28;20044;-56
2023/08/30 06:13:23;;;;;;;16.80;9.80;;;14.10;99.90;;;;;;5072087;28;20047;-58
2023/08/30 06:15:52;;;;;;;15.32;12.70;;;14.10;99.90;;;;;;5070253;28;20430;-57
2023/08/30 06:18:18;;;;;;;15.30;12.65;;;14.10;99.90;;;;;;5069975;28;20049;-55
2023/08/30 06:20:44;;;;;;;18.33;13.63;;;14.20;99.90;;;;;;5070370;28;20055;-58
2023/08/30 06:23:11;;;;;;;17.48;13.55;;;14.20;99.90;;;;;;5069952;28;20044;-57
2023/08/30 06:25:37;;;;;;;16.27;12.80;;;14.20;99.90;;;;;;5070331;28;20359;-55
2023/08/30 06:28:03;;;;;;;15.98;13.25;;;14.20;99.90;;;;;;5069928;28;20047;-57
2023/08/30 06:30:32;;;;;;;14.27;12.05;;;14.20;99.90;;;;;;5071265;28;20044;-59
2023/08/30 06:32:58;;;;;;;15.57;12.68;;;14.20;99.90;;;;;;5071464;28;20899;-58
2023/08/30 06:35:24;;;;;;;16.88;13.88;;;14.20;99.90;;;;;;5070855;28;20124;-56
2023/08/30 06:37:50;;;;;;;15.98;11.98;;;14.20;99.90;;;;;;5069805;28;20040;-56
2023/08/30 06:40:16;;;;;;;14.40;12.38;;;14.20;99.90;;;;;;5070866;28;20032;-57
2023/08/30 06:42:41;;;;;;;15.40;12.07;;;14.20;99.90;;;;;;5067623;28;20064;-54
2023/08/30 06:45:08;;;;;;;15.35;12.50;;;14.10;99.90;;;;;;5068339;28;20063;-57
2023/08/30 06:47:33;;;;;;;16.35;9.05;;;14.10;99.90;;;;;;5068246;28;20127;-56
2023/08/30 06:50:01;;;;;;;15.77;8.95;;;14.10;99.90;;;;;;5070197;28;20123;-56
2023/08/30 06:52:27;;;;;;;14.73;12.40;;;14.10;99.90;;;;;;5067946;28;20506;-56
2023/08/30 06:54:52;;;;;;;13.75;8.10;;;14.20;99.90;;;;;;5070321;28;20263;-57
2023/08/30 06:57:18;;;;;;;16.05;11.63;;;14.20;99.90;;;;;;5069789;28;20460;-57
2023/08/30 06:59:44;;;;;;;15.13;12.05;;;14.30;99.90;;;;;;5070899;28;20064;-57
2023/08/30 07:02:10;;;;;;;15.25;12.52;;;14.40;99.90;;;;;;5052887;28;20025;-55
2023/08/30 07:04:35;;;;;;;16.17;12.45;;;14.50;99.90;;;;;;5061677;28;20041;-55
2023/08/30 07:07:01;;;;;;;14.80;11.55;;;14.70;99.90;;;;;;5061852;28;20075;-58
2023/08/30 07:09:31;;;;;;;14.52;11.73;;;14.80;99.90;;;;;;5061181;28;20472;-56
2023/08/30 07:11:58;;;;;;;14.02;11.25;;;14.90;99.90;;;;;;5061972;28;20476;-58
2023/08/30 07:14:23;;;;;;;14.80;11.20;;;15.00;99.90;;;;;;5061556;28;20032;-59
2023/08/30 07:16:50;;;;;;;14.98;8.95;;;15.10;99.90;;;;;;5060929;28;20205;-57
2023/08/30 07:19:16;;;;;;;15.93;12.95;;;15.10;99.90;;;;;;5060631;28;20055;-58
2023/08/30 07:21:42;;;;;;;18.08;9.98;;;15.10;99.90;;;;;;5065892;28;20041;-56
2023/08/30 07:24:08;;;;;;;16.48;12.65;;;15.10;99.90;;;;;;5064744;28;20088;-55
2023/08/30 07:26:35;;;;;;;17.38;12.60;;;15.10;99.90;;;;;;5065654;28;20036;-56
2023/08/30 07:29:01;;;;;;;15.18;13.05;;;15.30;99.90;;;;;;5065162;28;20109;-56
2023/08/30 07:31:26;;;;;;;18.00;13.50;;;15.00;99.90;;;;;;5063907;28;20036;-58
2023/08/30 07:33:52;;;;;;;16.17;13.00;;;15.00;99.90;;;;;;5065234;28;20570;-58
2023/08/30 07:36:18;;;;;;;15.27;12.30;;;14.90;99.90;;;;;;5065189;28;20044;-56
2023/08/30 07:38:43;;;;;;;16.48;13.77;;;14.90;99.90;;;;;;5065284;28;20442;-56
2023/08/30 07:41:10;;;;;;;15.95;13.23;;;14.90;99.90;;;;;;5066758;28;20043;-57
2023/08/30 07:43:35;;;;;;;16.17;13.27;;;14.90;99.90;;;;;;5066552;28;20039;-57
2023/08/30 07:46:01;;;;;;;18.40;13.98;;;14.90;99.90;;;;;;5065908;28;20399;-56
2023/08/30 07:48:27;;;;;;;16.90;13.18;;;14.90;99.90;;;;;;5066011;28;20041;-58
2023/08/30 07:50:53;;;;;;;16.08;10.15;;;14.90;99.90;;;;;;5066291;28;20047;-57
2023/08/30 07:53:19;;;;;;;15.70;13.20;;;14.90;99.90;;;;;;5062574;28;20484;-54
2023/08/30 07:55:49;;;;;;;16.13;13.18;;;14.80;99.90;;;;;;5065204;28;20052;-57
2023/08/30 07:58:15;;;;;;;16.77;13.32;;;14.80;99.90;;;;;;5066189;28;20091;-58
2023/08/30 08:00:40;;;;;;;16.48;13.73;;;14.80;99.90;;;;;;5064143;28;20040;-59
2023/08/30 08:03:06;;;;;;;17.35;14.15;;;14.80;99.90;;;;;;5064725;28;20037;-60
2023/08/30 08:05:32;;;;;;;15.52;13.57;;;14.80;99.90;;;;;;5063755;28;20048;-58
2023/08/30 08:08:00;;;;;;;18.00;9.10;;;14.80;99.90;;;;;;5063833;28;20123;-55
2023/08/30 08:10:26;;;;;;;16.23;12.25;;;14.80;99.90;;;;;;5065675;28;20475;-57
2023/08/30 08:12:51;;;;;;;14.63;12.60;;;14.80;99.90;;;;;;5063936;28;20024;-58
2023/08/30 08:15:17;;;;;;;14.55;12.07;;;14.80;99.90;;;;;;5064567;28;20483;-56
2023/08/30 08:17:43;;;;;;;15.13;11.77;;;14.80;99.90;;;;;;5063403;28;20106;-55
2023/08/30 08:20:09;;;;;;;19.15;9.57;;;14.80;99.90;;;;;;5064577;28;20053;-56
2023/08/30 08:22:35;;;;;;;16.67;14.02;;;14.70;99.90;;;;;;5063875;28;20067;-57
2023/08/30 08:25:00;;;;;;;16.65;9.38;;;14.70;99.90;;;;;;5065054;28;20123;-56
2023/08/30 08:27:26;;;;;;;16.92;13.00;;;14.60;99.90;;;;;;5063093;28;20123;-56
2023/08/30 08:29:52;;;;;;;15.48;12.75;;;14.60;99.90;;;;;;5064458;28;20032;-56
2023/08/30 08:32:18;;;;;;;15.63;12.80;;;14.50;99.90;;;;;;5064182;28;20041;-58
2023/08/30 08:34:43;;;;;;;18.13;13.32;;;14.50;99.90;;;;;;5061140;28;20090;-57
2023/08/30 08:37:09;;;;;;;16.75;13.85;;;14.50;99.90;;;;;;5063984;28;20111;-57
2023/08/30 08:39:36;;;;;;;17.30;13.88;;;14.50;99.90;;;;;;5063540;28;20475;-56
2023/08/30 08:42:02;;;;;;;17.33;12.57;;;14.50;99.90;;;;;;5064609;28;20052;-57
2023/08/30 08:44:31;;;;;;;18.80;13.15;;;14.50;99.90;;;;;;5064511;28;20032;-54
2023/08/30 08:46:58;;;;;;;16.73;12.98;;;14.50;99.90;;;;;;5063410;28;20102;-57
2023/08/30 08:49:30;;;;;;;17.33;13.93;;;14.40;99.90;;;;;;5065811;28;20067;-55
2023/08/30 08:51:56;;;;;;;18.67;13.88;;;14.30;99.90;;;;;;5062396;28;20047;-53
2023/08/30 08:54:22;;;;;;;19.98;13.18;;;14.30;99.90;;;;;;5064734;28;20024;-51
2023/08/30 08:56:48;;;;;;;17.25;13.30;;;14.40;99.90;;;;;;5064697;28;20472;-55
2023/08/30 08:59:14;;;;;;;17.05;13.32;;;14.30;99.90;;;;;;5064007;28;20388;-53
2023/08/30 09:01:40;;;;;;;16.75;14.45;;;14.30;99.90;;;;;;5065278;28;20037;-55
2023/08/30 09:04:07;;;;;;;19.30;15.07;;;14.30;99.90;;;;;;5060869;28;20029;-55
2023/08/30 09:06:34;;;;;;;16.40;14.05;;;14.30;99.90;;;;;;5062791;28;20044;-53
2023/08/30 09:09:01;;;;;;;17.63;13.63;;;14.30;99.90;;;;;;5062085;28;20039;-52
2023/08/30 09:11:26;;;;;;;13.98;11.13;;;14.30;99.90;;;;;;5062093;28;20050;-55
2023/08/30 09:13:52;;;;;;;12.68;9.95;;;14.30;99.90;;;;;;5062392;28;20115;-52
2023/08/30 09:16:18;;;;;;;10.00;8.27;;;14.40;99.90;;;;;;5062571;28;20044;-52
2023/08/30 09:18:44;;;;;;;9.82;8.10;;;14.40;99.90;;;;;;5061185;28;20057;-53
2023/08/30 09:21:10;;;;;;;10.30;7.82;;;14.50;99.90;;;;;;5058743;28;20056;-56
2023/08/30 09:23:37;;;;;;;11.57;8.60;;;14.50;99.90;;;;;;5060812;28;20044;-53
2023/08/30 09:26:03;;;;;;;10.57;8.10;;;14.70;99.90;;;;;;5063654;28;20102;-55
2023/08/30 09:28:29;;;;;;;9.85;8.13;;;14.70;99.90;;;;;;5067679;28;20086;-54
2023/08/30 09:30:59;;;;;;;10.57;8.45;;;14.90;99.90;;;;;;5070195;28;20041;-54
2023/08/30 09:33:33;;;;;;;11.00;8.70;;;14.80;99.90;;;;;;5067697;28;20388;-57
2023/08/30 09:35:59;;;;;;;11.77;9.23;;;14.90;99.90;;;;;;5068574;28;20052;-54
2023/08/30 09:38:25;;;;;;;10.10;8.40;;;15.00;99.90;;;;;;5069842;28;20040;-54
2023/08/30 09:40:52;;;;;;;12.00;7.22;;;15.10;99.90;;;;;;5071739;28;20102;-55
2023/08/30 09:43:21;;;;;;;11.90;9.15;;;15.10;99.90;;;;;;5071797;28;20442;-53
2023/08/30 09:45:48;;;;;;;13.13;10.57;;;15.20;99.90;;;;;;5071022;28;20107;-58
2023/08/30 09:48:14;;;;;;;11.93;10.70;;;15.30;99.90;;;;;;5071487;28;20049;-54
2023/08/30 09:50:45;;;;;;;14.35;9.98;;;15.30;99.90;;;;;;5071630;28;20162;-54
2023/08/30 09:53:15;;;;;;;12.40;9.90;;;15.40;99.90;;;;;;5071222;28;20472;-57
2023/08/30 09:55:42;;;;;;;13.13;10.80;;;15.40;99.90;;;;;;5071002;28;20045;-55
2023/08/30 09:58:09;;;;;;;14.68;11.70;;;15.40;99.90;;;;;;5071028;28;20040;-54
2023/08/30 10:00:36;;;;;;;15.50;8.73;;;15.40;99.90;;;;;;5071278;28;20382;-53
2023/08/30 10:03:02;;;;;;;15.00;11.80;;;15.20;99.90;;;;;;5069683;28;20041;-54
2023/08/30 10:05:30;;;;;;;11.90;10.10;;;15.10;99.90;;;;;;5071284;28;20130;-58
2023/08/30 10:07:57;;;;;;;14.23;10.93;;;15.10;99.90;;;;;;5071004;28;20059;-57
2023/08/30 10:10:23;;;;;;;13.90;11.20;;;15.10;99.90;;;;;;5071985;28;20593;-59
2023/08/30 10:12:50;;;;;;;14.02;11.48;;;15.00;99.90;;;;;;5071145;28;20051;-54
2023/08/30 10:15:16;;;;;;;11.60;10.02;;;15.10;99.90;;;;;;5070462;28;20368;-55
2023/08/30 10:17:46;;;;;;;12.13;10.57;;;15.10;99.90;;;;;;5070152;28;20036;-58
2023/08/30 10:20:12;;;;;;;14.60;11.00;;;15.00;99.90;;;;;;5069833;28;20620;-55
2023/08/30 10:22:39;;;;;;;11.45;9.65;;;15.10;99.90;;;;;;5070125;28;20072;-55
2023/08/30 10:25:20;;;;;;;12.30;10.65;;;15.00;99.90;;;;;;5070202;28;20101;-56
2023/08/30 10:27:48;;;;;;;14.82;10.43;;;15.00;99.90;;;;;;5069246;28;20040;-54
2023/08/30 10:30:15;;;;;;;12.15;9.73;;;14.90;99.90;;;;;;5070435;28;20040;-58
2023/08/30 10:32:41;;;;;;;12.25;10.23;;;14.90;99.90;;;;;;5069292;28;20036;-56
2023/08/30 10:35:12;;;;;;;13.68;7.68;;;15.00;99.90;;;;;;5069974;28;20075;-55
2023/08/30 10:37:38;;;;;;;11.30;9.48;;;14.90;99.90;;;;;;5069424;28;20071;-57
2023/08/30 10:40:05;;;;;;;10.93;9.40;;;14.90;99.90;;;;;;5071698;28;20040;-58
2023/08/30 10:42:32;;;;;;;12.10;10.38;;;15.00;99.90;;;;;;5070509;28;20040;-59
2023/08/30 10:45:07;;;;;;;12.20;10.00;;;15.00;99.90;;;;;;5069705;28;20512;-55
2023/08/30 10:47:37;;;;;;;12.13;10.73;;;15.00;99.90;;;;;;5070474;28;20119;-54
2023/08/30 10:50:08;;;;;;;14.13;11.20;;;15.00;99.90;;;;;;5070224;28;20085;-56
2023/08/30 10:52:34;;;;;;;14.30;10.88;;;14.90;99.90;;;;;;5070207;28;20102;-55
2023/08/30 10:55:09;;;;;;;11.75;10.55;;;14.90;99.90;;;;;;5068726;28;20032;-55
2023/08/30 10:57:34;;;;;;;13.15;8.10;;;14.90;99.90;;;;;;5069250;28;20116;-57
2023/08/30 11:00:09;;;;;;;14.48;10.75;;;14.90;99.90;;;;;;5069656;28;20567;-53
2023/08/30 11:02:38;;;;;;;12.27;10.23;;;15.00;99.90;;;;;;5068445;28;20033;-56
2023/08/30 11:05:08;;;;;;;13.82;11.20;;;15.00;99.90;;;;;;5070323;28;20028;-53
2023/08/30 11:07:34;;;;;;;13.15;11.50;;;15.00;99.90;;;;;;5070097;28;20044;-58
2023/08/30 11:10:00;;;;;;;13.90;11.23;;;14.90;99.90;;;;;;5070473;28;20484;-56
2023/08/30 11:12:26;;;;;;;13.93;11.55;;;14.80;99.90;;;;;;5069004;28;20128;-57
2023/08/30 11:14:54;;;;;;;16.10;12.10;;;14.80;99.90;;;;;;5070601;28;20422;-56
2023/08/30 11:17:19;;;;;;;14.43;11.57;;;15.00;99.90;;;;;;5070123;28;20059;-52
2023/08/30 11:19:46;;;;;;;14.45;12.63;;;14.80;99.90;;;;;;5067109;28;20048;-57
2023/08/30 11:22:16;;;;;;;14.55;13.05;;;14.90;99.90;;;;;;5064072;28;20045;-56
2023/08/30 11:24:43;;;;;;;16.58;14.13;;;14.90;99.90;;;;;;5069538;28;20047;-54
2023/08/30 11:27:09;;;;;;;15.68;9.98;;;15.00;99.90;;;;;;5062768;28;20083;-55
2023/08/30 11:29:35;;;;;;;16.17;14.15;;;14.80;99.90;;;;;;5066535;28;20090;-55
2023/08/30 11:32:01;;;;;;;15.30;13.68;;;14.80;99.90;;;;;;5065745;28;20047;-55
2023/08/30 11:34:27;;;;;;;16.50;14.27;;;15.00;99.90;;;;;;5065955;28;20037;-55
2023/08/30 11:36:53;;;;;;;15.18;13.45;;;14.90;99.90;;;;;;5066406;28;20158;-53
2023/08/30 11:39:20;;;;;;;15.55;13.02;;;15.00;99.90;;;;;;5065642;28;20032;-52
2023/08/30 11:41:46;;;;;;;16.25;13.63;;;15.10;99.90;;;;;;5065157;28;20070;-54
2023/08/30 11:44:12;;;;;;;13.63;12.23;;;15.00;99.90;;;;;;5064878;28;20028;-57
2023/08/30 11:46:38;;;;;;;15.45;12.77;;;15.10;99.90;;;;;;5067150;28;20040;-56
2023/08/30 11:49:04;;;;;;;14.90;9.93;;;15.10;99.90;;;;;;5068709;28;20040;-53
2023/08/30 11:51:30;;;;;;;14.40;12.07;;;15.10;99.90;;;;;;5070618;28;20071;-56
2023/08/30 11:53:57;;;;;;;14.35;12.77;;;15.00;99.90;;;;;;5070313;28;20029;-56
2023/08/30 11:56:23;;;;;;;15.20;13.60;;;15.30;99.90;;;;;;5070883;28;20047;-54
2023/08/30 11:58:51;;;;;;;13.18;11.77;;;15.10;99.90;;;;;;5070140;28;20044;-57
2023/08/30 12:01:19;;;;;;;12.70;11.40;;;15.10;99.90;;;;;;5070554;28;20036;-52
2023/08/30 12:03:50;;;;;;;13.98;12.18;;;15.40;99.90;;;;;;5070789;28;20083;-54
2023/08/30 12:06:16;;;;;;;12.93;11.63;;;15.30;99.90;;;;;;5070817;28;20040;-54
2023/08/30 12:08:42;;;;;;;13.82;8.70;;;15.20;99.90;;;;;;5072741;28;20513;-53
2023/08/30 12:11:19;;;;;;;12.13;10.35;;;15.30;99.90;;;;;;5074127;28;20044;-58
2023/08/30 12:13:45;;;;;;;10.43;9.30;;;15.50;99.90;;;;;;5074315;28;20506;-59
2023/08/30 12:16:17;;;;;;;10.48;9.43;;;15.30;99.90;;;;;;5074244;28;20072;-57
2023/08/30 12:18:43;;;;;;;10.60;9.43;;;15.40;99.90;;;;;;5073839;28;20050;-56
2023/08/30 12:21:09;;;;;;;10.68;9.55;;;15.30;99.90;;;;;;5073872;28;20056;-56
2023/08/30 12:23:35;;;;;;;10.85;8.80;;;15.20;99.90;;;;;;5073694;28;20111;-56
2023/08/30 12:26:04;;;;;;;9.93;6.95;;;15.30;99.90;;;;;;5073927;28;20046;-54
2023/08/30 12:28:38;;;;;;;9.63;8.63;;;15.40;99.90;;;;;;5073857;28;20064;-55